createdAt,value
2024-01-05T00:00:00.665Z,8.37
2024-01-05T00:02:27.513Z,8.10
2024-01-05T00:04:54.156Z,6.97
2024-01-05T00:07:21.031Z,7.90
2024-01-05T00:09:47.701Z,6.73
2024-01-05T00:12:14.423Z,5.97
2024-01-05T00:14:41.999Z,5.40
2024-01-05T00:17:09.057Z,6.60
2024-01-05T00:19:36.175Z,11.23
2024-01-05T00:22:02.973Z,17.13
2024-01-05T00:24:29.794Z,9.83
2024-01-05T00:26:58.237Z,16.57
2024-01-05T00:29:24.909Z,12.03
2024-01-05T00:31:51.620Z,12.17
2024-01-05T00:34:18.356Z,13.90
2024-01-05T00:36:45.446Z,1.07
2024-01-05T00:39:12.431Z,4.10
2024-01-05T00:41:39.098Z,2.13
2024-01-05T00:44:05.692Z,2.30
2024-01-05T00:46:32.393Z,1.23
2024-01-05T00:48:59.229Z,2.90
2024-01-05T00:51:26.062Z,2.30
2024-01-05T00:53:52.845Z,1.33
2024-01-05T00:56:19.544Z,13.00
2024-01-05T00:58:46.199Z,10.90
2024-01-05T01:01:13.030Z,10.47
2024-01-05T01:03:39.812Z,9.43
2024-01-05T01:06:06.571Z,10.80
2024-01-05T01:08:33.268Z,9.03
2024-01-05T01:11:01.892Z,10.60
2024-01-05T01:13:29.079Z,3.80
2024-01-05T01:15:56.187Z,7.37
2024-01-05T01:18:23.038Z,7.70
2024-01-05T01:20:52.677Z,10.63
2024-01-05T01:23:19.752Z,4.23
2024-01-05T01:25:46.458Z,6.20
2024-01-05T01:28:13.169Z,2.70
2024-01-05T01:30:39.891Z,2.27
2024-01-05T01:33:06.668Z,4.50
2024-01-05T01:35:33.514Z,5.87
2024-01-05T01:38:01.383Z,6.00
2024-01-05T01:40:29.932Z,5.37
2024-01-05T01:42:56.697Z,9.40
2024-01-05T01:45:23.407Z,7.53
2024-01-05T01:47:51.511Z,3.50
2024-01-05T01:50:19.287Z,3.40
2024-01-05T01:52:47.888Z,2.07
2024-01-05T01:55:17.038Z,3.53
2024-01-05T01:57:44.491Z,5.13
2024-01-05T02:00:11.858Z,1.43
2024-01-05T02:02:38.872Z,1.27
2024-01-05T02:05:06.785Z,0.80
2024-01-05T02:07:33.558Z,1.37
2024-01-05T02:10:00.243Z,1.50
2024-01-05T02:12:27.001Z,1.40
2024-01-05T02:14:53.732Z,3.63
2024-01-05T02:17:34.272Z,2.33
2024-01-05T02:20:01.607Z,2.50
2024-01-05T02:22:30.464Z,4.00
2024-01-05T02:24:58.702Z,1.70
2024-01-05T02:27:26.595Z,5.50
2024-01-05T02:29:53.507Z,1.10
2024-01-05T02:32:20.512Z,3.83
2024-01-05T02:34:47.230Z,3.47
2024-01-05T02:37:14.019Z,4.50
2024-01-05T02:39:40.689Z,4.60
2024-01-05T02:42:07.436Z,4.27
2024-01-05T02:44:34.070Z,3.77
2024-01-05T02:47:00.733Z,5.57
2024-01-05T02:49:27.618Z,2.97
2024-01-05T02:51:54.362Z,2.63
2024-01-05T02:54:21.101Z,6.83
2024-01-05T02:56:47.757Z,3.33
2024-01-05T02:59:15.370Z,5.30
2024-01-05T03:01:42.075Z,12.07
2024-01-05T03:04:09.094Z,1.80
2024-01-05T03:06:35.857Z,3.73
2024-01-05T03:09:02.591Z,4.73
2024-01-05T03:11:29.247Z,3.03
2024-01-05T03:13:55.888Z,3.67
2024-01-05T03:16:22.552Z,6.40
2024-01-05T03:18:49.367Z,6.33
2024-01-05T03:21:16.180Z,2.43
2024-01-05T03:23:42.917Z,1.80
2024-01-05T03:26:10.541Z,6.87
2024-01-05T03:28:39.584Z,1.43
2024-01-05T03:31:11.516Z,4.70
2024-01-05T03:33:38.357Z,3.10
2024-01-05T03:36:05.515Z,4.33
2024-01-05T03:38:32.184Z,0.93
2024-01-05T03:41:00.098Z,1.83
2024-01-05T03:43:26.777Z,1.00
2024-01-05T03:45:53.384Z,2.70
2024-01-05T03:48:20.647Z,0.80
2024-01-05T03:50:47.407Z,2.17
2024-01-05T03:53:14.108Z,2.33
2024-01-05T03:55:40.761Z,2.20
2024-01-05T03:58:07.758Z,1.30
2024-01-05T04:00:34.663Z,4.37
2024-01-05T04:03:01.442Z,5.60
2024-01-05T04:05:28.226Z,7.57
2024-01-05T04:07:54.867Z,3.37
2024-01-05T04:10:21.553Z,6.70
2024-01-05T04:12:48.207Z,4.03
2024-01-05T04:15:15.383Z,4.07
2024-01-05T04:17:42.175Z,5.13
2024-01-05T04:20:10.163Z,5.40
2024-01-05T04:22:36.865Z,6.43
2024-01-05T04:25:03.883Z,4.70
2024-01-05T04:27:30.691Z,3.50
2024-01-05T04:29:57.512Z,7.87
2024-01-05T04:32:24.310Z,3.83
2024-01-05T04:34:51.006Z,3.57
2024-01-05T04:37:17.609Z,5.20
2024-01-05T04:39:45.014Z,6.13
2024-01-05T04:42:12.894Z,8.30
2024-01-05T04:44:40.534Z,7.67
2024-01-05T04:47:07.270Z,5.13
2024-01-05T04:49:35.328Z,6.17
2024-01-05T04:52:02.302Z,4.20
2024-01-05T04:54:29.275Z,6.67
2024-01-05T04:56:55.992Z,6.63
2024-01-05T04:59:23.527Z,4.30
2024-01-05T05:01:50.221Z,5.60
2024-01-05T05:04:19.047Z,5.77
2024-01-05T05:06:45.886Z,3.43
2024-01-05T05:09:13.805Z,5.23
2024-01-05T05:11:43.679Z,5.23
2024-01-05T05:14:10.584Z,3.83
2024-01-05T05:16:37.322Z,4.53
2024-01-05T05:19:04.217Z,6.37
2024-01-05T05:21:32.372Z,8.37
2024-01-05T05:23:59.130Z,6.37
2024-01-05T05:26:25.896Z,8.37
2024-01-05T05:28:52.577Z,5.97
2024-01-05T05:31:19.413Z,5.73
2024-01-05T05:33:46.236Z,7.23
2024-01-05T05:36:13.069Z,4.13
2024-01-05T05:38:39.747Z,6.53
2024-01-05T05:41:06.384Z,5.87
2024-01-05T05:43:33.074Z,4.93
2024-01-05T05:45:59.739Z,6.30
2024-01-05T05:48:26.567Z,6.87
2024-01-05T05:50:53.410Z,7.00
2024-01-05T05:53:20.200Z,11.13
2024-01-05T05:55:46.869Z,13.13
2024-01-05T05:58:13.548Z,6.47
2024-01-05T06:00:40.282Z,7.93
2024-01-05T06:03:08.369Z,5.07
2024-01-05T06:05:37.080Z,4.70
2024-01-05T06:08:03.941Z,4.23
2024-01-05T06:10:30.658Z,2.30
2024-01-05T06:12:57.393Z,7.00
2024-01-05T06:15:24.061Z,5.63
2024-01-05T06:17:50.715Z,4.67
2024-01-05T06:20:17.470Z,10.10
2024-01-05T06:22:44.434Z,3.50
2024-01-05T06:25:11.083Z,6.17
2024-01-05T06:27:39.451Z,7.63
2024-01-05T06:30:07.565Z,16.13
2024-01-05T06:32:34.430Z,8.67
2024-01-05T06:35:01.117Z,6.67
2024-01-05T06:37:28.921Z,8.30
2024-01-05T06:39:55.594Z,6.77
2024-01-05T06:42:23.349Z,10.33
2024-01-05T06:44:51.581Z,6.27
2024-01-05T06:47:18.637Z,8.57
2024-01-05T06:49:45.537Z,8.53
2024-01-05T06:52:12.282Z,9.30
2024-01-05T06:54:39.225Z,15.17
2024-01-05T06:57:08.435Z,17.40
2024-01-05T06:59:37.611Z,11.90
2024-01-05T07:02:05.051Z,18.37
2024-01-05T07:04:31.895Z,9.77
2024-01-05T07:06:58.648Z,13.17
2024-01-05T07:09:26.156Z,17.70
2024-01-05T07:11:53.479Z,16.97
2024-01-05T07:14:20.159Z,10.80
2024-01-05T07:16:49.111Z,18.37
2024-01-05T07:19:16.106Z,12.03
2024-01-05T07:21:45.118Z,11.47
2024-01-05T07:24:15.615Z,9.63
2024-01-05T07:26:43.314Z,8.67
2024-01-05T07:29:10.099Z,6.23
2024-01-05T07:31:36.794Z,7.87
2024-01-05T07:34:03.791Z,8.40
2024-01-05T07:36:31.080Z,8.20
2024-01-05T07:39:01.227Z,10.40
2024-01-05T07:41:28.565Z,7.97
2024-01-05T07:43:55.367Z,9.67
2024-01-05T07:46:23.535Z,7.43
2024-01-05T07:48:50.351Z,5.50
2024-01-05T07:51:20.859Z,8.50
2024-01-05T07:53:49.846Z,8.60
2024-01-05T07:56:19.797Z,5.43
2024-01-05T07:58:46.808Z,8.60
2024-01-05T08:01:21.068Z,4.37
2024-01-05T08:03:49.243Z,8.07
2024-01-05T08:06:17.495Z,3.63
2024-01-05T08:08:48.504Z,4.17
2024-01-05T08:11:15.545Z,6.87
2024-01-05T08:13:43.386Z,3.97
2024-01-05T08:16:10.715Z,4.33
2024-01-05T08:18:38.632Z,3.80
2024-01-05T08:21:06.250Z,6.37
2024-01-05T08:23:33.489Z,3.30
2024-01-05T08:26:00.441Z,7.37
2024-01-05T08:28:27.730Z,8.43
2024-01-05T08:30:57.680Z,3.43
2024-01-05T08:33:24.926Z,3.40
2024-01-05T08:35:51.719Z,4.20
2024-01-05T08:38:18.513Z,4.73
2024-01-05T08:40:46.330Z,5.10
2024-01-05T08:43:13.072Z,4.97
2024-01-05T08:45:40.248Z,4.47
2024-01-05T08:48:07.195Z,3.77
2024-01-05T08:50:36.181Z,7.10
2024-01-05T08:53:03.205Z,5.50
2024-01-05T08:55:30.010Z,6.30
2024-01-05T08:57:56.754Z,4.13
2024-01-05T09:00:23.637Z,4.73
2024-01-05T09:02:51.116Z,10.03
2024-01-05T09:05:17.847Z,2.53
2024-01-05T09:07:44.506Z,4.20
2024-01-05T09:10:11.207Z,6.27
2024-01-05T09:12:38.696Z,9.07
2024-01-05T09:15:05.988Z,4.50
2024-01-05T09:17:32.776Z,3.87
2024-01-05T09:19:59.480Z,8.10
2024-01-05T09:22:26.213Z,2.73
2024-01-05T09:24:53.441Z,3.50
2024-01-05T09:27:20.240Z,6.03
2024-01-05T09:29:46.937Z,4.93
2024-01-05T09:32:14.493Z,4.50
2024-01-05T09:34:43.017Z,6.70
2024-01-05T09:37:10.635Z,3.90
2024-01-05T09:39:37.408Z,6.53
2024-01-05T09:42:04.794Z,4.20
2024-01-05T09:44:32.985Z,3.73
2024-01-05T09:46:59.868Z,9.53
2024-01-05T09:49:27.203Z,4.37
2024-01-05T09:51:54.691Z,3.40
2024-01-05T09:54:21.442Z,3.30
2024-01-05T09:56:48.578Z,10.40
2024-01-05T09:59:18.654Z,3.83
2024-01-05T10:01:49.989Z,3.30
2024-01-05T10:04:17.115Z,4.87
2024-01-05T10:06:44.021Z,5.77
2024-01-05T10:09:10.883Z,6.57
2024-01-05T10:11:43.569Z,6.63
2024-01-05T10:14:15.362Z,6.13
2024-01-05T10:16:42.161Z,6.10
2024-01-05T10:19:17.432Z,9.73
2024-01-05T10:21:47.029Z,4.70
2024-01-05T10:24:24.320Z,7.47
2024-01-05T10:27:12.073Z,6.60
2024-01-05T10:29:40.524Z,6.33
2024-01-05T10:32:12.041Z,11.17
2024-01-05T10:34:41.105Z,3.43
2024-01-05T10:37:08.496Z,3.73
2024-01-05T10:39:36.647Z,10.53
2024-01-05T10:42:25.916Z,5.97
2024-01-05T10:44:57.593Z,10.50
2024-01-05T10:47:27.194Z,3.97
2024-01-05T10:49:57.197Z,8.60
2024-01-05T10:52:28.620Z,7.83
2024-01-05T10:54:55.494Z,4.70
2024-01-05T10:57:24.925Z,15.30
2024-01-05T10:59:56.228Z,5.17
2024-01-05T11:02:32.165Z,14.40
2024-01-05T11:05:08.986Z,4.83
2024-01-05T11:07:36.833Z,10.77
2024-01-05T11:10:10.289Z,8.30
2024-01-05T11:12:42.900Z,9.80
2024-01-05T11:15:27.613Z,6.03
2024-01-05T11:17:54.757Z,12.97
2024-01-05T11:20:41.134Z,6.90
2024-01-05T11:23:09.773Z,4.30
2024-01-05T11:25:36.490Z,5.73
2024-01-05T11:28:03.383Z,5.47
2024-01-05T11:30:42.020Z,5.83
2024-01-05T11:33:10.398Z,5.97
2024-01-05T11:35:38.421Z,5.97
2024-01-05T11:38:24.342Z,9.03
2024-01-05T11:40:51.256Z,11.87
2024-01-05T11:43:44.339Z,8.43
2024-01-05T11:46:11.133Z,10.13
2024-01-05T11:48:38.852Z,9.17
2024-01-05T11:51:10.746Z,12.67
2024-01-05T11:53:37.969Z,7.10
2024-01-05T11:56:11.576Z,5.23
2024-01-05T11:58:44.504Z,12.97
2024-01-05T12:01:14.156Z,9.47
2024-01-05T12:03:42.601Z,7.23
2024-01-05T12:06:11.971Z,5.23
2024-01-05T12:08:39.853Z,8.10
2024-01-05T12:11:09.511Z,3.87
2024-01-05T12:13:38.597Z,6.07
2024-01-05T12:16:07.617Z,5.13
2024-01-05T12:18:42.897Z,7.70
2024-01-05T12:21:12.793Z,4.80
2024-01-05T12:23:39.972Z,8.77
2024-01-05T12:26:08.819Z,5.97
2024-01-05T12:28:38.081Z,6.63
2024-01-05T12:31:07.141Z,16.60
2024-01-05T12:33:36.892Z,4.73
2024-01-05T12:36:09.314Z,5.93
2024-01-05T12:38:37.286Z,8.33
2024-01-05T12:41:11.225Z,5.70
2024-01-05T12:43:44.959Z,5.60
2024-01-05T12:46:11.867Z,8.50
2024-01-05T12:48:39.273Z,5.73
2024-01-05T12:51:24.002Z,8.17
2024-01-05T12:54:02.949Z,5.57
2024-01-05T12:56:30.035Z,11.60
2024-01-05T12:58:56.708Z,4.27
2024-01-05T13:01:26.137Z,7.67
2024-01-05T13:03:58.886Z,7.63
2024-01-05T13:06:27.740Z,8.17
2024-01-05T13:08:54.883Z,19.90
2024-01-05T13:11:22.421Z,10.47
2024-01-05T13:13:53.868Z,16.43
2024-01-05T13:16:21.666Z,13.50
2024-01-05T13:18:49.099Z,6.07
2024-01-05T13:21:16.277Z,11.83
2024-01-05T13:23:44.420Z,3.30
2024-01-05T13:26:14.258Z,6.60
2024-01-05T13:28:41.925Z,6.73
2024-01-05T13:31:09.673Z,8.23
2024-01-05T13:33:36.946Z,11.30
2024-01-05T13:36:04.100Z,4.77
2024-01-05T13:38:30.872Z,11.10
2024-01-05T13:40:57.569Z,10.03
2024-01-05T13:43:26.356Z,6.20
2024-01-05T13:45:55.531Z,12.87
2024-01-05T13:48:23.095Z,5.90
2024-01-05T13:50:50.012Z,9.33
2024-01-05T13:53:16.654Z,16.70
2024-01-05T13:55:43.326Z,5.13
2024-01-05T13:58:10.180Z,6.43
2024-01-05T14:00:37.078Z,12.00
2024-01-05T14:03:04.817Z,7.80
2024-01-05T14:05:31.704Z,11.97
2024-01-05T14:07:58.672Z,6.90
2024-01-05T14:10:25.461Z,3.93
2024-01-05T14:12:52.214Z,4.27
2024-01-05T14:15:19.662Z,14.33
2024-01-05T14:17:46.713Z,7.80
2024-01-05T14:20:14.005Z,4.57
2024-01-05T14:22:40.784Z,6.07
2024-01-05T14:25:07.965Z,3.70
2024-01-05T14:27:34.690Z,4.90
2024-01-05T14:30:01.436Z,6.77
2024-01-05T14:32:28.634Z,2.70
2024-01-05T14:34:55.483Z,3.10
2024-01-05T14:37:22.762Z,2.43
2024-01-05T14:39:49.458Z,3.57
2024-01-05T14:42:16.361Z,6.60
2024-01-05T14:44:43.116Z,5.60
2024-01-05T14:47:09.894Z,2.80
2024-01-05T14:49:36.981Z,3.07
2024-01-05T14:52:04.016Z,2.63
2024-01-05T14:54:32.175Z,5.53
2024-01-05T14:56:59.022Z,6.23
2024-01-05T14:59:25.997Z,13.63
2024-01-05T15:01:52.653Z,10.90
2024-01-05T15:04:19.532Z,11.47
2024-01-05T15:06:46.301Z,12.40
2024-01-05T15:09:13.393Z,6.47
2024-01-05T15:11:40.983Z,8.33
2024-01-05T15:14:08.025Z,10.53
2024-01-05T15:16:41.848Z,8.07
2024-01-05T15:19:08.778Z,6.97
2024-01-05T15:21:35.955Z,7.80
2024-01-05T15:24:03.001Z,9.97
2024-01-05T15:26:29.798Z,5.03
2024-01-05T15:28:56.503Z,7.17
2024-01-05T15:31:23.610Z,4.87
2024-01-05T15:33:53.395Z,4.87
2024-01-05T15:36:25.004Z,8.50
2024-01-05T15:38:52.709Z,22.83
2024-01-05T15:41:20.522Z,23.20
2024-01-05T15:43:49.164Z,15.33
2024-01-05T15:46:18.212Z,15.10
2024-01-05T15:48:45.227Z,10.43
2024-01-05T15:51:15.510Z,31.73
2024-01-05T15:53:46.486Z,12.50
2024-01-05T15:56:13.384Z,12.83
2024-01-05T15:58:40.949Z,16.17
2024-01-05T16:01:07.816Z,14.17
2024-01-05T16:03:34.748Z,9.83
2024-01-05T16:06:01.792Z,9.53
2024-01-05T16:08:29.396Z,8.47
2024-01-05T16:10:57.310Z,9.00
2024-01-05T16:13:24.817Z,19.30
2024-01-05T16:15:51.772Z,15.67
2024-01-05T16:18:18.756Z,21.30
2024-01-05T16:20:47.784Z,14.53
2024-01-05T16:23:15.471Z,7.70
2024-01-05T16:25:45.303Z,6.53
2024-01-05T16:28:12.040Z,12.93
2024-01-05T16:30:38.872Z,11.70
2024-01-05T16:33:06.061Z,9.30
2024-01-05T16:35:33.010Z,8.77
2024-01-05T16:37:59.709Z,8.43
2024-01-05T16:40:26.361Z,7.27
2024-01-05T16:42:53.052Z,8.83
2024-01-05T16:45:19.800Z,6.40
2024-01-05T16:47:46.909Z,5.80
2024-01-05T16:50:15.192Z,12.53
2024-01-05T16:52:43.717Z,6.40
2024-01-05T16:55:10.906Z,6.80
2024-01-05T16:57:37.886Z,5.93
2024-01-05T17:00:06.078Z,8.87
2024-01-05T17:02:33.396Z,9.40
2024-01-05T17:05:00.340Z,9.50
2024-01-05T17:07:28.321Z,8.93
2024-01-05T17:09:55.271Z,78.87
2024-01-05T17:12:22.112Z,28.50
2024-01-05T17:14:48.985Z,27.53
2024-01-05T17:17:15.737Z,19.50
2024-01-05T17:19:42.591Z,19.17
2024-01-05T17:22:10.624Z,22.80
2024-01-05T17:24:39.514Z,16.07
2024-01-05T17:27:06.315Z,20.50
2024-01-05T17:29:34.506Z,16.67
2024-01-05T17:32:01.403Z,13.50
2024-01-05T17:34:28.594Z,10.97
2024-01-05T17:36:55.312Z,9.07
2024-01-05T17:39:22.030Z,9.27
2024-01-05T17:41:48.650Z,14.03
2024-01-05T17:44:16.517Z,12.20
2024-01-05T17:46:43.263Z,15.67
2024-01-05T17:49:10.151Z,18.00
2024-01-05T17:51:37.769Z,19.47
2024-01-05T17:54:04.525Z,17.17
2024-01-05T17:56:34.811Z,12.00
2024-01-05T17:59:05.040Z,12.27
2024-01-05T18:01:33.895Z,21.87
2024-01-05T18:04:01.047Z,18.20
2024-01-05T18:06:28.197Z,14.47
2024-01-05T18:08:55.022Z,11.70
2024-01-05T18:11:23.723Z,33.60
2024-01-05T18:13:54.301Z,27.10
2024-01-05T18:16:25.965Z,29.93
2024-01-05T18:18:53.663Z,31.53
2024-01-05T18:21:22.591Z,27.77
2024-01-05T18:23:49.642Z,25.83
2024-01-05T18:26:24.266Z,23.30
2024-01-05T18:28:51.811Z,29.90
2024-01-05T18:31:26.511Z,24.53
2024-01-05T18:33:54.390Z,19.60
2024-01-05T18:36:22.670Z,18.50
2024-01-05T18:38:50.722Z,15.20
2024-01-05T18:41:24.269Z,11.57
2024-01-05T18:43:51.135Z,8.70
2024-01-05T18:46:18.191Z,6.33
2024-01-05T18:48:45.569Z,9.47
2024-01-05T18:51:12.853Z,6.63
2024-01-05T18:53:39.928Z,25.23
2024-01-05T18:56:07.510Z,12.97
2024-01-05T18:58:35.979Z,15.67
2024-01-05T19:01:03.921Z,12.93
2024-01-05T19:03:30.992Z,8.23
2024-01-05T19:05:58.036Z,11.40
2024-01-05T19:08:25.494Z,11.13
2024-01-05T19:10:52.215Z,15.53
2024-01-05T19:13:18.893Z,17.97
2024-01-05T19:15:46.911Z,10.90
2024-01-05T19:18:13.979Z,8.90
2024-01-05T19:20:40.982Z,32.10
2024-01-05T19:23:07.771Z,62.87
2024-01-05T19:25:35.085Z,21.23
2024-01-05T19:28:01.791Z,6.87
2024-01-05T19:30:28.594Z,9.87
2024-01-05T19:32:55.404Z,12.77
2024-01-05T19:35:22.357Z,5.23
2024-01-05T19:37:49.133Z,5.37
2024-01-05T19:40:15.931Z,4.93
2024-01-05T19:42:43.023Z,7.93
2024-01-05T19:45:13.545Z,4.37
2024-01-05T19:47:40.627Z,5.20
2024-01-05T19:50:08.733Z,13.80
2024-01-05T19:52:35.514Z,28.03
2024-01-05T19:55:04.621Z,29.93
2024-01-05T19:57:31.807Z,17.07
2024-01-05T19:59:58.597Z,9.83
2024-01-05T20:02:25.320Z,7.60
2024-01-05T20:04:52.243Z,10.57
2024-01-05T20:07:19.798Z,9.53
2024-01-05T20:09:46.627Z,11.13
2024-01-05T20:12:17.805Z,17.87
2024-01-05T20:14:45.211Z,15.93
2024-01-05T20:17:14.352Z,30.33
2024-01-05T20:19:42.748Z,46.17
2024-01-05T20:22:09.732Z,24.37
2024-01-05T20:24:36.437Z,21.13
2024-01-05T20:27:09.266Z,22.53
2024-01-05T20:29:40.622Z,15.90
2024-01-05T20:32:08.780Z,20.73
2024-01-05T20:34:35.631Z,10.13
2024-01-05T20:37:02.465Z,6.00
2024-01-05T20:39:29.412Z,8.20
2024-01-05T20:41:56.324Z,7.27
2024-01-05T20:44:24.049Z,23.33
2024-01-05T20:46:51.238Z,14.70
2024-01-05T20:49:18.327Z,18.40
2024-01-05T20:51:45.391Z,17.33
2024-01-05T20:54:12.227Z,20.67
2024-01-05T20:56:38.917Z,16.37
2024-01-05T20:59:05.524Z,19.80
2024-01-05T21:01:32.169Z,14.37
2024-01-05T21:03:58.905Z,16.10
2024-01-05T21:06:26.052Z,11.03
2024-01-05T21:08:52.894Z,10.17
2024-01-05T21:11:25.139Z,12.20
2024-01-05T21:13:52.148Z,15.83
2024-01-05T21:16:18.967Z,13.53
2024-01-05T21:18:45.793Z,12.20
2024-01-05T21:21:12.599Z,7.43
2024-01-05T21:23:39.312Z,11.50
2024-01-05T21:26:06.391Z,17.63
2024-01-05T21:28:33.548Z,17.67
2024-01-05T21:31:05.247Z,14.40
2024-01-05T21:33:32.579Z,17.13
2024-01-05T21:35:59.427Z,17.20
2024-01-05T21:38:26.158Z,23.33
2024-01-05T21:40:52.981Z,10.60
2024-01-05T21:43:22.048Z,12.30
2024-01-05T21:45:49.289Z,11.20
2024-01-05T21:48:16.249Z,9.87
2024-01-05T21:50:43.459Z,10.03
2024-01-05T21:53:10.354Z,11.13
2024-01-05T21:55:37.513Z,14.10
2024-01-05T21:58:04.391Z,9.63
2024-01-05T22:00:31.112Z,16.47
2024-01-05T22:02:57.863Z,15.63
2024-01-05T22:05:24.548Z,17.13
2024-01-05T22:07:53.044Z,12.70
2024-01-05T22:10:19.813Z,15.83
2024-01-05T22:12:48.804Z,12.87
2024-01-05T22:15:16.722Z,9.57
2024-01-05T22:17:44.829Z,12.83
2024-01-05T22:20:13.289Z,7.67
2024-01-05T22:22:40.027Z,10.17
2024-01-05T22:25:07.267Z,15.17
2024-01-05T22:27:34.059Z,10.97
2024-01-05T22:30:00.727Z,9.30
2024-01-05T22:32:29.829Z,16.00
2024-01-05T22:34:57.435Z,16.73
2024-01-05T22:37:24.979Z,15.80
2024-01-05T22:39:51.732Z,10.97
2024-01-05T22:42:18.521Z,13.03
2024-01-05T22:44:45.325Z,10.67
2024-01-05T22:47:12.084Z,13.93
2024-01-05T22:49:40.488Z,10.27
2024-01-05T22:52:07.808Z,15.07
2024-01-05T22:54:35.829Z,12.97
2024-01-05T22:57:04.092Z,8.37
2024-01-05T22:59:32.895Z,8.40
2024-01-05T23:02:00.274Z,10.47
2024-01-05T23:04:27.790Z,14.43
2024-01-05T23:06:56.450Z,8.23
2024-01-05T23:09:26.722Z,12.63
2024-01-05T23:11:53.508Z,12.83
2024-01-05T23:14:20.265Z,9.73
2024-01-05T23:16:48.453Z,12.17
2024-01-05T23:19:15.334Z,8.57
2024-01-05T23:21:42.160Z,14.67
2024-01-05T23:24:09.644Z,6.93
2024-01-05T23:26:36.346Z,10.13
2024-01-05T23:29:04.112Z,6.97
2024-01-05T23:31:31.047Z,6.57
2024-01-05T23:34:08.511Z,8.10
2024-01-05T23:36:42.684Z,11.73
2024-01-05T23:39:09.872Z,6.07
2024-01-05T23:41:37.640Z,7.17
2024-01-05T23:44:05.003Z,6.13
2024-01-05T23:46:31.691Z,9.13
2024-01-05T23:48:58.469Z,8.13
2024-01-05T23:51:25.344Z,9.47
2024-01-05T23:53:52.031Z,11.63
2024-01-05T23:56:18.778Z,9.20
2024-01-05T23:58:45.959Z,6.47
